Time;durP1;ratioP1;P1;durP2;ratioP2;P2;SDS_P1;SDS_P2;PMS_P1;PMS_P2;Temp;Humidity;BMP_temperature;BMP_pressure;BME280_temperature;BME280_humidity;BME280_pressure;Samples;Min_cycle;Max_cycle;Signal;HPM_P1;HPM_P2
2021/05/19 00:00:54;;;;;;;6.13;4.50;;;;;;;8.77;81.58;100595.44;5032984;28;20175;-67
2021/05/19 00:03:19;;;;;;;5.03;4.50;;;;;;;8.71;81.54;100582.44;5032986;28;20229;-67
2021/05/19 00:05:45;;;;;;;5.67;4.40;;;;;;;8.66;81.70;100598.63;5032706;28;20176;-67
2021/05/19 00:08:10;;;;;;;4.60;4.20;;;;;;;8.62;81.46;100598.84;5032661;28;20196;-67
2021/05/19 00:10:37;;;;;;;6.67;4.20;;;;;;;8.59;82.31;100599.00;5031653;28;20200;-68
2021/05/19 00:13:03;;;;;;;4.63;4.00;;;;;;;8.58;83.14;100592.81;5035349;28;20571;-67
2021/05/19 00:15:28;;;;;;;5.13;4.00;;;;;;;8.55;83.41;100598.28;5035556;28;20172;-67
2021/05/19 00:17:54;;;;;;;5.07;4.47;;;;;;;8.54;83.26;100595.66;5035113;28;20218;-67
2021/05/19 00:20:21;;;;;;;5.03;4.00;;;;;;;8.49;83.21;100590.56;5035145;28;20247;-67
2021/05/19 00:22:46;;;;;;;7.70;4.93;;;;;;;8.50;82.97;100602.06;5036385;28;20175;-67
2021/05/19 00:25:12;;;;;;;6.93;4.73;;;;;;;8.50;83.31;100591.44;5018580;28;20180;-67
2021/05/19 00:27:37;;;;;;;6.97;5.10;;;;;;;8.49;82.99;100595.03;5035240;28;20594;-67
2021/05/19 00:30:05;;;;;;;5.73;4.40;;;;;;;8.48;83.71;100593.31;5034657;28;20206;-67
2021/05/19 00:32:30;;;;;;;6.27;4.33;;;;;;;8.44;83.22;100588.16;5035227;28;20172;-69
2021/05/19 00:34:55;;;;;;;7.93;5.50;;;;;;;8.44;83.34;100589.94;5034976;28;20583;-68
2021/05/19 00:37:21;;;;;;;5.83;4.83;;;;;;;8.43;82.84;100597.06;5034990;28;20220;-67
2021/05/19 00:39:46;;;;;;;5.47;4.43;;;;;;;8.44;83.03;100600.56;5018803;28;20742;-67
2021/05/19 00:42:13;;;;;;;5.70;4.50;;;;;;;8.42;83.38;100589.16;5036182;28;20168;-67
2021/05/19 00:44:38;;;;;;;5.83;4.63;;;;;;;8.39;83.59;100598.16;5034882;28;20168;-67
2021/05/19 00:47:03;;;;;;;5.83;4.30;;;;;;;8.39;83.40;100591.97;5035880;28;20167;-67
2021/05/19 00:49:29;;;;;;;5.37;4.17;;;;;;;8.34;83.72;100581.56;5035699;28;20212;-67
2021/05/19 00:51:54;;;;;;;6.97;4.77;;;;;;;8.30;83.88;100584.41;5017958;28;20186;-67
2021/05/19 00:54:19;;;;;;;5.63;4.53;;;;;;;8.25;84.11;100581.97;5036137;28;20172;-67
2021/05/19 00:56:45;;;;;;;6.47;4.60;;;;;;;8.21;84.32;100585.69;5035120;28;20191;-67
2021/05/19 00:59:10;;;;;;;5.13;4.63;;;;;;;8.19;84.02;100590.22;5034403;28;20726;-67
2021/05/19 01:01:37;;;;;;;6.40;4.90;;;;;;;8.20;84.41;100588.44;5035555;28;20255;-67
2021/05/19 01:04:03;;;;;;;6.03;4.93;;;;;;;8.19;84.43;100589.38;5017994;28;20549;-67
2021/05/19 01:06:39;;;;;;;7.93;5.50;;;;;;;8.17;84.77;100589.41;5034325;28;20176;-67
2021/05/19 01:11:48;;;;;;;8.03;4.87;;;;;;;8.17;85.24;100597.38;5035592;28;20214;-67
2021/05/19 01:14:14;;;;;;;6.87;5.13;;;;;;;8.14;85.50;100595.72;5034288;28;20183;-67
2021/05/19 01:16:39;;;;;;;5.53;4.80;;;;;;;8.17;86.53;100600.03;5035832;28;20172;-68
2021/05/19 01:19:05;;;;;;;5.30;4.80;;;;;;;8.23;86.64;100594.47;5035324;28;20196;-67
2021/05/19 01:21:31;;;;;;;5.73;4.50;;;;;;;8.18;86.31;100595.59;5035397;28;20180;-67
2021/05/19 01:23:57;;;;;;;8.90;4.70;;;;;;;8.24;85.30;100600.66;5034476;28;20180;-67
2021/05/19 01:26:23;;;;;;;5.33;4.83;;;;;;;8.28;84.28;100600.44;5035091;28;20664;-67
2021/05/19 01:28:48;;;;;;;7.67;4.57;;;;;;;8.33;83.96;100598.44;5035395;28;20192;-67
2021/05/19 01:31:13;;;;;;;5.93;4.43;;;;;;;8.36;83.78;100600.09;5035094;28;20199;-67
2021/05/19 01:33:39;;;;;;;7.27;5.10;;;;;;;8.40;83.63;100602.53;5035523;28;20172;-67
2021/05/19 01:36:05;;;;;;;7.37;4.83;;;;;;;8.43;83.18;100591.75;5033822;28;20168;-67
2021/05/19 01:38:30;;;;;;;8.13;4.73;;;;;;;8.44;82.48;100590.81;5035065;28;20740;-67
2021/05/19 01:40:55;;;;;;;5.57;4.73;;;;;;;8.46;82.35;100598.72;5035081;28;20177;-67
2021/05/19 01:43:34;;;;;;;4.80;4.23;;;;;;;8.49;81.70;100592.38;5035304;28;20629;-67
2021/05/19 01:46:01;;;;;;;4.97;4.20;;;;;;;8.44;82.09;100596.13;5033882;28;20171;-68
2021/05/19 01:48:28;;;;;;;7.13;4.60;;;;;;;8.40;83.09;100597.22;5000593;28;20206;-68
2021/05/19 01:50:54;;;;;;;8.07;4.37;;;;;;;8.36;83.50;100597.44;5034849;28;20209;-68
2021/05/19 01:53:19;;;;;;;5.77;4.40;;;;;;;8.30;84.36;100597.69;5034840;28;20180;-68
2021/05/19 01:55:44;;;;;;;4.53;4.13;;;;;;;8.24;85.28;100596.19;5033384;28;20179;-68
2021/05/19 01:58:10;;;;;;;6.37;4.50;;;;;;;8.20;84.42;100599.06;5035043;28;20195;-68
2021/05/19 02:00:35;;;;;;;6.40;4.03;;;;;;;8.21;84.58;100599.00;5034649;28;20537;-68
2021/05/19 02:03:03;;;;;;;8.37;4.83;;;;;;;8.18;85.66;100607.13;5034586;28;20179;-68
2021/05/19 02:05:29;;;;;;;9.10;4.90;;;;;;;8.14;86.36;100608.16;5033526;28;20199;-68
2021/05/19 02:07:56;;;;;;;9.33;5.00;;;;;;;8.10;86.32;100598.59;5033478;28;20212;-68
2021/05/19 02:10:22;;;;;;;4.97;4.47;;;;;;;8.03;86.05;100605.16;5034200;28;20199;-68
2021/05/19 02:12:47;;;;;;;4.80;4.30;;;;;;;8.01;86.23;100605.22;5034192;28;20183;-68
2021/05/19 02:15:16;;;;;;;5.20;4.30;;;;;;;7.99;86.15;100609.75;5033232;28;20192;-68
2021/05/19 02:17:41;;;;;;;8.50;5.20;;;;;;;7.95;85.99;100600.19;5034522;28;20180;-68
2021/05/19 02:20:12;;;;;;;6.27;4.60;;;;;;;7.94;85.46;100600.25;5034530;28;20176;-68
2021/05/19 02:22:37;;;;;;;5.90;4.77;;;;;;;7.95;85.00;100607.31;5034333;28;20157;-68
2021/05/19 02:25:04;;;;;;;5.50;4.33;;;;;;;7.93;85.04;100606.50;5034458;28;20179;-68
2021/05/19 02:27:29;;;;;;;6.10;4.80;;;;;;;7.89;85.25;100610.25;5032761;28;20202;-68
2021/05/19 02:29:56;;;;;;;5.87;4.67;;;;;;;7.80;85.41;100615.03;5034042;28;20204;-68
2021/05/19 02:32:21;;;;;;;6.47;5.07;;;;;;;7.75;85.80;100614.34;5033853;28;20175;-68
2021/05/19 02:34:47;;;;;;;5.67;5.07;;;;;;;7.72;85.62;100617.16;5031785;28;20682;-68
2021/05/19 02:37:12;;;;;;;6.17;5.03;;;;;;;7.70;85.97;100615.50;5032997;28;20561;-68
2021/05/19 02:39:38;;;;;;;6.30;4.90;;;;;;;7.65;86.08;100618.38;5033914;28;20221;-68
2021/05/19 02:42:03;;;;;;;5.67;5.03;;;;;;;7.59;86.15;100620.44;5034688;28;20183;-68
2021/05/19 02:44:28;;;;;;;6.03;4.83;;;;;;;7.58;85.94;100621.34;5017051;28;20188;-67
2021/05/19 02:46:54;;;;;;;6.37;4.73;;;;;;;7.57;85.56;100622.28;5045327;28;20207;-67
2021/05/19 02:49:19;;;;;;;11.80;5.63;;;;;;;7.55;86.04;100621.50;5030420;28;20302;-67
2021/05/19 02:51:44;;;;;;;7.43;5.40;;;;;;;7.51;85.84;100624.28;5036206;28;20175;-68
2021/05/19 02:54:10;;;;;;;7.17;4.90;;;;;;;7.54;85.47;100628.59;5034085;28;20199;-68
2021/05/19 02:56:35;;;;;;;6.00;5.07;;;;;;;7.57;85.20;100620.50;5032378;28;20644;-67
2021/05/19 02:59:02;;;;;;;7.97;5.63;;;;;;;7.60;85.01;100623.03;5033613;28;20217;-67
2021/05/19 03:01:27;;;;;;;6.57;5.47;;;;;;;7.54;85.29;100620.63;5032911;28;20175;-68
2021/05/19 03:03:52;;;;;;;9.17;5.90;;;;;;;7.47;85.59;100627.16;5033657;28;20187;-68
2021/05/19 03:06:18;;;;;;;7.20;5.40;;;;;;;7.42;85.51;100635.28;5033249;28;20175;-68
2021/05/19 03:08:43;;;;;;;7.97;5.40;;;;;;;7.45;86.18;100640.50;5032611;28;20253;-67
2021/05/19 03:11:09;;;;;;;11.77;5.77;;;;;;;7.44;85.63;100636.13;5015550;28;20196;-68
2021/05/19 03:13:34;;;;;;;8.23;6.13;;;;;;;7.37;86.33;100644.38;5032178;28;20208;-68
2021/05/19 03:16:00;;;;;;;7.47;5.83;;;;;;;7.36;86.18;100640.00;5033399;28;20190;-68
2021/05/19 03:18:25;;;;;;;7.03;5.27;;;;;;;7.38;86.54;100646.09;5031792;28;20210;-68
2021/05/19 03:20:50;;;;;;;6.63;5.60;;;;;;;7.31;86.83;100650.81;5034370;28;20180;-68
2021/05/19 03:23:16;;;;;;;7.27;5.53;;;;;;;7.26;86.69;100643.97;5033205;28;20552;-67
2021/05/19 03:25:42;;;;;;;8.43;6.10;;;;;;;7.15;87.58;100647.97;5031928;28;20166;-67
2021/05/19 03:28:07;;;;;;;8.40;5.97;;;;;;;7.11;87.76;100650.81;5032911;28;20232;-68
2021/05/19 03:30:33;;;;;;;8.10;6.47;;;;;;;7.05;88.00;100653.69;5032885;28;20235;-67
2021/05/19 03:32:58;;;;;;;7.70;6.00;;;;;;;6.97;88.47;100655.78;5032889;28;20636;-67
2021/05/19 03:35:23;;;;;;;7.20;5.70;;;;;;;6.97;88.67;100651.34;5032819;28;20179;-67
2021/05/19 03:37:49;;;;;;;7.43;6.10;;;;;;;6.94;88.49;100654.13;5032785;28;20190;-67
2021/05/19 03:40:15;;;;;;;8.13;6.20;;;;;;;6.90;88.58;100656.06;5031683;28;20651;-67
2021/05/19 03:42:40;;;;;;;9.17;6.57;;;;;;;6.87;88.94;100657.97;5033078;28;20552;-68
2021/05/19 03:45:08;;;;;;;10.17;6.23;;;;;;;6.86;88.60;100658.91;5031763;28;20195;-67
2021/05/19 03:47:33;;;;;;;7.30;6.03;;;;;;;6.82;89.35;100657.28;5036176;28;20697;-67
2021/05/19 03:49:58;;;;;;;9.63;6.13;;;;;;;6.84;89.30;100660.75;5038064;28;20204;-68
2021/05/19 03:52:24;;;;;;;7.63;5.83;;;;;;;6.84;88.87;100658.97;5035837;28;20194;-67
2021/05/19 03:54:49;;;;;;;6.90;5.80;;;;;;;6.84;89.28;100664.25;5036998;28;20180;-67
2021/05/19 03:57:14;;;;;;;7.80;6.20;;;;;;;6.84;89.39;100661.63;5036691;28;20254;-67
2021/05/19 03:59:39;;;;;;;7.13;5.87;;;;;;;6.90;89.10;100666.66;5036607;28;20202;-67
2021/05/19 04:02:05;;;;;;;7.83;6.30;;;;;;;6.91;89.21;100659.56;5035460;28;20543;-67
2021/05/19 04:04:31;;;;;;;8.37;6.60;;;;;;;6.96;89.47;100665.56;5035404;28;20182;-67
2021/05/19 04:06:56;;;;;;;7.50;6.37;;;;;;;7.04;88.85;100667.88;5036572;28;20171;-67
2021/05/19 04:09:21;;;;;;;10.93;6.90;;;;;;;7.17;88.52;100666.47;5036728;28;20280;-67
2021/05/19 04:11:47;;;;;;;8.00;6.80;;;;;;;7.38;87.91;100668.22;5036441;28;20229;-67
2021/05/19 04:14:12;;;;;;;7.87;5.90;;;;;;;7.53;87.11;100667.56;5035300;28;20176;-67
2021/05/19 04:16:39;;;;;;;7.47;5.90;;;;;;;7.64;86.36;100677.72;5036537;28;20207;-67
2021/05/19 04:19:05;;;;;;;9.60;6.40;;;;;;;7.67;86.37;100679.38;5035477;28;20271;-67
2021/05/19 04:21:30;;;;;;;9.10;5.90;;;;;;;7.71;86.03;100679.19;5035337;28;20176;-68
2021/05/19 04:23:56;;;;;;;6.53;5.80;;;;;;;7.82;85.85;100689.38;5035090;28;20560;-68
2021/05/19 04:26:21;;;;;;;9.77;7.77;;;;;;;7.70;86.62;100674.81;5035460;28;20179;-68
2021/05/19 04:28:46;;;;;;;10.33;7.87;;;;;;;7.87;86.88;100674.09;5036286;28;20246;-68
2021/05/19 04:31:12;;;;;;;8.83;7.17;;;;;;;7.83;86.74;100675.16;5036000;28;20196;-68
2021/05/19 04:33:37;;;;;;;8.03;7.23;;;;;;;7.83;87.18;100685.78;5036043;28;20518;-68
2021/05/19 04:36:03;;;;;;;11.73;8.20;;;;;;;7.92;86.52;100684.50;5034934;28;20234;-67
2021/05/19 04:38:28;;;;;;;12.10;8.93;;;;;;;7.81;87.04;100687.66;5035190;28;20219;-67
2021/05/19 04:40:54;;;;;;;11.30;8.87;;;;;;;7.88;88.00;100688.22;5036045;28;20179;-67
2021/05/19 04:43:19;;;;;;;10.27;8.70;;;;;;;7.96;87.19;100691.41;5035918;28;20659;-67
2021/05/19 04:45:44;;;;;;;13.67;9.03;;;;;;;8.10;87.59;100695.16;5036044;28;20182;-67
2021/05/19 04:48:10;;;;;;;15.43;9.87;;;;;;;8.07;87.95;100690.00;5035653;28;20282;-67
2021/05/19 04:50:36;;;;;;;10.97;9.10;;;;;;;8.15;88.03;100686.97;5035620;28;20198;-67
2021/05/19 04:53:01;;;;;;;10.53;8.73;;;;;;;8.26;87.96;100695.34;5017934;28;20575;-67
2021/05/19 04:55:26;;;;;;;12.37;8.83;;;;;;;8.50;86.62;100693.38;5036032;28;20172;-67
2021/05/19 04:57:52;;;;;;;13.30;9.53;;;;;;;8.43;87.25;100700.78;5033673;28;20203;-68
2021/05/19 05:00:18;;;;;;;16.10;9.60;;;;;;;8.33;87.34;100694.16;5034199;28;20176;-68
2021/05/19 05:02:43;;;;;;;12.03;9.03;;;;;;;8.46;87.35;100697.13;5035722;28;20184;-67
2021/05/19 05:05:09;;;;;;;10.97;9.03;;;;;;;8.57;86.33;100701.97;5034381;28;20672;-67
2021/05/19 05:07:35;;;;;;;12.33;9.87;;;;;;;8.64;85.84;100696.28;5034525;28;20215;-67
2021/05/19 05:10:02;;;;;;;12.83;8.73;;;;;;;8.67;85.19;100692.59;5035693;28;20231;-68
2021/05/19 05:12:27;;;;;;;11.90;8.70;;;;;;;8.69;84.97;100704.03;5034675;28;20177;-68
2021/05/19 05:14:52;;;;;;;13.17;9.60;;;;;;;8.76;84.54;100702.81;5034454;28;20179;-68
2021/05/19 05:17:18;;;;;;;15.13;8.33;;;;;;;8.87;83.92;100708.47;5017604;28;20169;-68
2021/05/19 05:19:43;;;;;;;13.43;9.23;;;;;;;8.78;83.34;100707.13;5035817;28;20545;-70
2021/05/19 05:22:09;;;;;;;11.63;8.43;;;;;;;8.84;84.33;100708.63;5034323;28;20206;-69
2021/05/19 05:24:34;;;;;;;16.50;11.10;;;;;;;9.01;83.59;100705.16;5017746;28;20172;-69
2021/05/19 05:26:59;;;;;;;15.93;11.63;;;;;;;9.17;83.29;100711.47;5034260;28;20183;-71
2021/05/19 05:29:25;;;;;;;12.23;9.60;;;;;;;9.22;82.54;100711.22;5033980;28;20196;-72
2021/05/19 05:31:50;;;;;;;10.27;7.83;;;;;;;9.42;82.09;100720.91;5035790;28;20572;-71
2021/05/19 05:34:15;;;;;;;11.27;8.30;;;;;;;9.58;80.33;100720.06;5034149;28;20222;-72
2021/05/19 05:36:41;;;;;;;10.87;7.57;;;;;;;9.65;80.50;100713.47;5034280;28;20199;-72
2021/05/19 05:39:06;;;;;;;12.57;8.47;;;;;;;9.78;80.75;100712.88;5034111;28;20536;-72
2021/05/19 05:41:32;;;;;;;12.33;8.60;;;;;;;9.92;79.52;100715.66;5034144;28;20529;-68
2021/05/19 05:43:57;;;;;;;11.20;8.13;;;;;;;9.89;80.26;100715.81;5034195;28;20184;-70
2021/05/19 05:46:22;;;;;;;11.10;8.03;;;;;;;9.91;79.46;100721.94;5033583;28;20188;-69
2021/05/19 05:48:47;;;;;;;11.67;8.90;;;;;;;10.01;78.97;100720.50;5034801;28;20204;-69
2021/05/19 05:51:13;;;;;;;12.67;8.27;;;;;;;9.91;79.34;100725.47;5034826;28;20196;-68
2021/05/19 05:53:38;;;;;;;12.83;9.03;;;;;;;9.88;78.69;100720.31;5035315;28;20223;-69
2021/05/19 05:56:03;;;;;;;9.57;7.80;;;;;;;9.88;78.37;100725.63;5035520;28;20656;-69
2021/05/19 05:58:29;;;;;;;9.27;7.17;;;;;;;9.84;79.57;100718.72;5034614;28;20203;-68
2021/05/19 06:00:54;;;;;;;11.60;7.97;;;;;;;10.01;79.29;100721.38;5034752;28;20176;-68
2021/05/19 06:03:19;;;;;;;9.40;7.87;;;;;;;10.20;78.24;100718.66;5034967;28;20179;-68
2021/05/19 06:05:45;;;;;;;8.80;6.57;;;;;;;10.41;76.40;100730.00;5033925;28;20180;-68
2021/05/19 06:08:10;;;;;;;11.60;7.97;;;;;;;10.56;76.69;100730.97;5033033;28;20242;-69
2021/05/19 06:10:35;;;;;;;11.83;7.17;;;;;;;10.57;77.32;100735.34;5034435;28;20211;-68
2021/05/19 06:13:01;;;;;;;12.33;7.93;;;;;;;10.05;79.20;100732.78;5034684;28;20179;-68
2021/05/19 06:15:26;;;;;;;8.43;6.67;;;;;;;10.54;78.13;100732.84;5033168;28;20188;-68
2021/05/19 06:17:52;;;;;;;8.10;6.60;;;;;;;10.69;76.33;100734.66;5032857;28;20249;-69
2021/05/19 06:20:17;;;;;;;9.13;5.90;;;;;;;10.86;75.14;100742.63;5033291;28;20195;-68
2021/05/19 06:22:43;;;;;;;7.60;6.03;;;;;;;10.74;75.36;100743.28;5034122;28;20187;-68
2021/05/19 06:25:09;;;;;;;8.60;5.90;;;;;;;9.85;77.99;100735.59;5034113;28;20172;-67
2021/05/19 06:27:34;;;;;;;7.40;5.50;;;;;;;10.29;76.11;100733.28;5034699;28;20216;-68
2021/05/19 06:29:59;;;;;;;6.80;5.80;;;;;;;10.72;74.70;100739.84;5033167;28;20220;-68
2021/05/19 06:32:25;;;;;;;6.43;5.40;;;;;;;10.84;75.12;100744.53;5039234;28;20175;-69
2021/05/19 06:34:50;;;;;;;7.80;5.20;;;;;;;10.97;73.91;100752.69;5046680;28;20176;-69
2021/05/19 06:37:15;;;;;;;7.00;5.33;;;;;;;11.12;73.83;100741.16;5045573;28;20176;-68
2021/05/19 06:39:41;;;;;;;6.07;5.27;;;;;;;10.65;75.33;100743.78;5035000;28;20572;-68
2021/05/19 06:42:07;;;;;;;9.20;5.67;;;;;;;10.63;75.29;100741.22;5016347;28;20552;-68
2021/05/19 06:44:32;;;;;;;10.00;6.10;;;;;;;10.65;74.90;100747.31;5034144;28;20177;-68
2021/05/19 06:46:57;;;;;;;6.97;5.10;;;;;;;11.24;71.94;100748.50;5034171;28;20183;-68
2021/05/19 06:49:23;;;;;;;7.43;5.17;;;;;;;11.11;73.12;100746.56;5015778;28;20578;-68
2021/05/19 06:51:48;;;;;;;9.23;5.23;;;;;;;11.38;72.00;100749.50;5032123;28;20212;-68
2021/05/19 06:54:14;;;;;;;6.80;4.97;;;;;;;11.42;70.29;100748.38;5033724;28;20263;-69
2021/05/19 06:56:46;;;;;;;6.80;5.03;;;;;;;11.56;70.37;100746.63;5032276;28;20184;-69
2021/05/19 06:59:12;;;;;;;8.20;5.53;;;;;;;11.46;70.62;100748.09;5032335;28;20231;-69
2021/05/19 07:01:38;;;;;;;8.50;6.73;;;;;;;11.24;71.62;100751.16;5033413;28;20168;-69
2021/05/19 07:04:03;;;;;;;7.60;5.67;;;;;;;11.20;72.06;100756.78;5015784;28;20693;-69
2021/05/19 07:06:29;;;;;;;9.10;6.93;;;;;;;11.14;71.64;100754.41;5015841;28;20169;-68
2021/05/19 07:08:54;;;;;;;11.27;6.53;;;;;;;11.02;72.20;100757.78;5032187;28;20730;-68
2021/05/19 07:11:19;;;;;;;9.87;6.10;;;;;;;10.81;72.25;100755.38;5033432;28;20280;-69
2021/05/19 07:13:45;;;;;;;8.83;5.80;;;;;;;10.67;73.31;100763.25;5033184;28;20203;-68
2021/05/19 07:16:11;;;;;;;8.23;6.03;;;;;;;10.52;74.21;100764.97;5033439;28;20176;-68
2021/05/19 07:18:37;;;;;;;9.60;6.70;;;;;;;10.43;75.42;100769.94;5033491;28;20192;-68
2021/05/19 07:21:03;;;;;;;9.43;6.67;;;;;;;10.42;74.38;100768.22;5032975;28;20171;-69
2021/05/19 07:23:28;;;;;;;12.30;5.93;;;;;;;10.45;75.14;100768.91;5033881;28;20176;-68
2021/05/19 07:25:53;;;;;;;11.33;5.83;;;;;;;10.12;74.59;100776.84;5032090;28;20190;-69
2021/05/19 07:28:18;;;;;;;7.60;5.33;;;;;;;10.43;74.01;100780.59;5033257;28;20200;-68
2021/05/19 07:30:47;;;;;;;9.70;5.37;;;;;;;10.61;72.07;100775.13;5033257;28;20280;-68
2021/05/19 07:33:12;;;;;;;5.67;4.63;;;;;;;10.30;73.21;100770.56;5031823;28;20171;-69
2021/05/19 07:35:38;;;;;;;9.87;5.83;;;;;;;10.31;74.27;100787.44;5015263;28;20234;-69
2021/05/19 07:38:11;;;;;;;9.47;5.97;;;;;;;10.12;74.80;100782.16;5033042;28;20192;-69
2021/05/19 07:40:36;;;;;;;8.63;6.03;;;;;;;10.11;74.97;100793.78;5033143;28;20164;-69
2021/05/19 07:43:01;;;;;;;11.13;6.20;;;;;;;10.26;73.90;100795.66;5032088;28;20183;-69
2021/05/19 07:45:27;;;;;;;7.27;6.07;;;;;;;10.26;73.30;100790.34;5032144;28;20172;-69
2021/05/19 07:47:53;;;;;;;8.20;5.60;;;;;;;10.29;72.67;100814.19;5031901;28;20204;-68
2021/05/19 07:50:18;;;;;;;6.27;5.33;;;;;;;10.23;71.89;100801.16;5015171;28;20664;-69
2021/05/19 07:52:43;;;;;;;7.93;5.33;;;;;;;10.70;70.80;100808.47;5015003;28;20226;-69
2021/05/19 07:55:17;;;;;;;8.83;6.10;;;;;;;11.06;70.29;100808.28;5031611;28;20213;-68
2021/05/19 07:57:59;;;;;;;10.77;6.33;;;;;;;11.35;68.64;100803.13;5032122;28;20185;-69
2021/05/19 08:00:39;;;;;;;7.10;4.30;;;;;;;11.43;67.47;100803.53;5031509;28;20156;-69
2021/05/19 08:03:05;;;;;;;7.07;4.10;;;;;;;11.53;66.17;100802.09;5017739;28;20175;-69
2021/05/19 08:05:30;;;;;;;6.30;4.13;;;;;;;11.57;65.80;100803.63;5031350;28;20176;-69
2021/05/19 08:07:56;;;;;;;8.63;6.30;;;;;;;11.67;65.61;100796.78;5032660;28;20195;-69
2021/05/19 08:10:21;;;;;;;9.20;6.23;;;;;;;11.95;64.52;100798.75;5015052;28;20223;-69
2021/05/19 08:12:47;;;;;;;5.93;4.23;;;;;;;12.13;64.17;100794.97;5032603;28;20176;-69
2021/05/19 08:15:12;;;;;;;10.63;5.53;;;;;;;12.18;64.12;100795.56;5032781;28;20211;-69
2021/05/19 08:17:38;;;;;;;6.20;4.00;;;;;;;12.60;63.11;100788.53;5033796;28;20249;-70
2021/05/19 08:20:05;;;;;;;6.10;4.53;;;;;;;12.92;62.14;100802.59;5038590;28;20168;-69
2021/05/19 08:22:30;;;;;;;6.60;3.60;;;;;;;12.92;60.85;100801.72;5020196;28;20179;-70
2021/05/19 08:24:55;;;;;;;5.77;3.93;;;;;;;12.68;61.70;100806.84;5041138;28;20176;-70
2021/05/19 08:27:20;;;;;;;6.83;3.47;;;;;;;12.43;62.74;100804.78;5038716;28;20168;-70
2021/05/19 08:29:46;;;;;;;11.27;3.83;;;;;;;12.37;62.07;100810.53;5036239;28;20224;-70
2021/05/19 08:32:12;;;;;;;5.17;3.93;;;;;;;12.23;63.41;100811.34;5033846;28;20169;-69
2021/05/19 08:34:37;;;;;;;7.23;4.97;;;;;;;12.15;63.92;100814.47;5036211;28;20643;-69
2021/05/19 08:37:03;;;;;;;4.70;3.80;;;;;;;12.25;63.08;100804.06;5035100;28;20168;-69
2021/05/19 08:39:28;;;;;;;8.43;4.10;;;;;;;12.34;63.31;100808.03;5036325;28;20203;-69
2021/05/19 08:41:53;;;;;;;6.93;3.90;;;;;;;12.41;63.49;100812.91;5035098;28;20248;-68
2021/05/19 08:44:24;;;;;;;7.60;4.90;;;;;;;12.39;63.38;100813.97;5036576;28;20173;-69
2021/05/19 08:46:58;;;;;;;7.10;4.90;;;;;;;12.49;63.01;100815.97;5036964;28;20236;-69
2021/05/19 08:49:25;;;;;;;6.93;3.70;;;;;;;12.38;62.90;100806.88;5036388;28;20203;-69
2021/05/19 08:51:52;;;;;;;3.33;2.93;;;;;;;12.68;61.13;100799.66;5036635;28;20178;-70
2021/05/19 08:54:18;;;;;;;5.07;3.30;;;;;;;13.11;59.27;100805.00;5035786;28;20172;-69
2021/05/19 08:56:45;;;;;;;4.23;3.07;;;;;;;13.34;57.74;100809.75;5036803;28;20187;-69
2021/05/19 08:59:11;;;;;;;3.73;3.07;;;;;;;13.47;56.87;100808.97;5034765;28;20231;-70
2021/05/19 09:01:42;;;;;;;4.67;3.40;;;;;;;13.79;56.77;100809.53;5034995;28;20227;-69
2021/05/19 09:04:16;;;;;;;4.57;2.80;;;;;;;14.23;56.10;100809.22;5019072;28;20192;-69
2021/05/19 09:06:42;;;;;;;4.47;2.73;;;;;;;14.33;55.50;100810.28;5038035;28;20209;-69
2021/05/19 09:09:20;;;;;;;5.63;2.70;;;;;;;14.27;54.43;100799.97;5036383;28;20196;-69
2021/05/19 09:12:05;;;;;;;4.83;3.10;;;;;;;14.29;54.32;100808.78;5037811;28;20672;-69
2021/05/19 09:14:33;;;;;;;3.63;2.60;;;;;;;13.97;54.62;100805.59;5037339;28;20178;-69
2021/05/19 09:17:18;;;;;;;6.03;3.00;;;;;;;14.48;54.09;100808.41;5036117;28;20176;-69
2021/05/19 09:19:43;;;;;;;4.07;2.60;;;;;;;14.26;54.60;100804.50;5034531;28;20275;-70
2021/05/19 09:22:22;;;;;;;4.97;3.10;;;;;;;14.11;56.23;100804.66;5035906;28;20261;-69
2021/05/19 09:24:48;;;;;;;3.93;2.67;;;;;;;14.57;55.24;100814.00;5034960;28;20578;-69
2021/05/19 09:27:14;;;;;;;10.70;6.57;;;;;;;14.48;54.71;100803.03;5035682;28;20184;-69
2021/05/19 09:29:40;;;;;;;7.20;3.77;;;;;;;14.25;55.32;100808.13;5017790;28;20699;-68
2021/05/19 09:32:12;;;;;;;3.77;2.67;;;;;;;14.40;55.52;100803.53;5034377;28;20230;-69
2021/05/19 09:34:40;;;;;;;4.30;3.17;;;;;;;14.40;55.46;100800.84;5036203;28;20200;-68
2021/05/19 09:37:11;;;;;;;8.00;2.77;;;;;;;14.58;54.74;100810.34;5035885;28;20175;-69
2021/05/19 09:39:50;;;;;;;4.70;3.17;;;;;;;14.23;56.46;100795.78;5035605;28;20242;-69
2021/05/19 09:42:16;;;;;;;6.43;3.70;;;;;;;14.36;54.73;100799.34;5035663;28;20160;-69
2021/05/19 09:44:45;;;;;;;3.33;2.73;;;;;;;14.94;53.81;100795.28;5017074;28;20176;-69
2021/05/19 09:47:11;;;;;;;3.13;2.47;;;;;;;14.86;52.99;100800.31;5042244;28;20204;-69
2021/05/19 09:49:37;;;;;;;5.90;2.80;;;;;;;14.62;53.91;100798.44;5047536;28;20214;-69
2021/05/19 09:52:13;;;;;;;3.60;2.47;;;;;;;14.38;53.43;100803.63;5043759;28;20176;-69
2021/05/19 09:54:43;;;;;;;2.67;2.10;;;;;;;14.67;52.90;100798.97;5034509;28;20180;-69
2021/05/19 09:57:11;;;;;;;4.13;2.73;;;;;;;14.86;52.21;100797.63;5035655;28;20187;-69
2021/05/19 09:59:37;;;;;;;5.07;2.90;;;;;;;15.02;51.25;100803.66;5035134;28;20200;-69
2021/05/19 10:02:03;;;;;;;3.90;2.40;;;;;;;14.84;51.53;100792.38;5033404;28;20192;-69
2021/05/19 10:04:38;;;;;;;2.60;2.00;;;;;;;14.65;50.31;100800.03;5033460;28;20181;-69
2021/05/19 10:07:11;;;;;;;3.63;2.10;;;;;;;14.99;49.52;100804.75;5034202;28;20524;-69
2021/05/19 10:09:37;;;;;;;3.60;2.20;;;;;;;15.44;48.54;100801.50;5033262;28;20205;-68
2021/05/19 10:12:03;;;;;;;2.87;1.77;;;;;;;15.57;48.82;100791.53;5034511;28;20181;-69
2021/05/19 10:14:29;;;;;;;4.30;2.43;;;;;;;15.32;50.27;100795.19;5016372;28;20192;-69
2021/05/19 10:17:05;;;;;;;3.33;2.07;;;;;;;15.76;50.31;100799.16;5033318;28;20240;-69
2021/05/19 10:19:34;;;;;;;2.97;2.63;;;;;;;15.45;51.16;100797.84;5033354;28;20188;-69
2021/05/19 10:22:00;;;;;;;6.10;2.47;;;;;;;14.99;50.77;100790.44;5034582;28;20580;-69
2021/05/19 10:24:48;;;;;;;3.67;2.33;;;;;;;14.63;52.30;100802.84;5033366;28;20275;-69
2021/05/19 10:27:15;;;;;;;4.73;2.87;;;;;;;14.65;52.54;100790.16;5016570;28;20175;-69
2021/05/19 10:29:49;;;;;;;4.67;2.60;;;;;;;14.56;52.88;100789.94;5034059;28;20192;-69
2021/05/19 10:32:32;;;;;;;4.50;2.90;;;;;;;14.54;53.32;100792.75;5034082;28;20254;-69
2021/05/19 10:35:07;;;;;;;3.13;2.80;;;;;;;14.88;50.78;100799.28;5032687;28;20636;-68
2021/05/19 10:37:35;;;;;;;4.23;2.40;;;;;;;15.07;50.12;100798.81;5034223;28;20172;-69
2021/05/19 10:40:06;;;;;;;4.20;2.20;;;;;;;15.22;48.52;100800.38;5033006;28;20574;-69
2021/05/19 10:42:36;;;;;;;5.37;2.10;;;;;;;15.65;47.83;100791.88;5033709;28;20259;-69
2021/05/19 10:45:13;;;;;;;4.80;1.93;;;;;;;16.17;45.34;100791.47;5033645;28;20180;-69
2021/05/19 10:47:39;;;;;;;4.93;2.07;;;;;;;16.60;46.57;100779.19;5033307;28;20639;-68
2021/05/19 10:58:28;;;;;;;3.27;1.77;;;;;;;15.88;48.01;100785.63;5033809;28;20690;-68
2021/05/19 11:00:54;;;;;;;2.33;1.60;;;;;;;17.33;44.39;100786.81;5034048;28;20207;-69
2021/05/19 11:03:19;;;;;;;2.50;1.67;;;;;;;19.22;40.07;100786.75;5017042;28;20176;-69
2021/05/19 11:05:54;;;;;;;3.00;1.53;;;;;;;20.11;38.11;100777.66;5033235;28;20206;-70
2021/05/19 11:08:30;;;;;;;4.07;1.40;;;;;;;19.40;39.50;100777.00;5033328;28;20676;-69
2021/05/19 11:11:15;;;;;;;3.40;1.83;;;;;;;17.45;44.26;100781.25;5032125;28;20203;-69
2021/05/19 11:14:03;;;;;;;1.73;1.30;;;;;;;15.92;45.67;100776.34;5031924;28;20176;-69
2021/05/19 11:17:12;;;;;;;5.93;2.37;;;;;;;15.67;47.33;100781.88;5031999;28;20578;-69
2021/05/19 11:19:37;;;;;;;6.23;2.83;;;;;;;15.70;48.28;100783.47;5032297;28;20195;-69
2021/05/19 11:22:12;;;;;;;4.77;2.00;;;;;;;15.57;49.70;100778.09;5015506;28;20268;-69
2021/05/19 11:24:48;;;;;;;2.70;1.90;;;;;;;14.54;54.15;100786.50;5031787;28;20167;-69
2021/05/19 11:27:18;;;;;;;5.03;2.33;;;;;;;14.92;51.74;100781.09;5015364;28;20225;-69
2021/05/19 11:29:45;;;;;;;3.50;1.90;;;;;;;14.96;51.33;100780.78;5033963;28;20208;-69
2021/05/19 11:32:18;;;;;;;2.43;1.70;;;;;;;15.41;50.00;100790.97;5018715;28;20176;-70
2021/05/19 11:34:44;;;;;;;3.93;2.00;;;;;;;16.43;49.23;100778.69;5015368;28;20169;-68
2021/05/19 11:37:10;;;;;;;1.80;1.50;;;;;;;18.22;44.53;100781.13;5031810;28;20176;-68